createdAt,value
2022-08-22T00:01:30.070Z,13.12
2022-08-22T00:03:02.139Z,16.13
2022-08-22T00:04:15.456Z,13.03
2022-08-22T00:06:53.795Z,13.08
2022-08-22T00:09:32.339Z,12.96
2022-08-22T00:12:09.594Z,12.88
2022-08-22T00:14:45.043Z,12.78
2022-08-22T00:17:44.412Z,12.79
2022-08-22T00:20:19.962Z,12.85
2022-08-22T00:22:59.949Z,12.73
2022-08-22T00:25:38.642Z,12.59
2022-08-22T00:28:11.378Z,12.50
2022-08-22T00:30:48.619Z,12.56
2022-08-22T00:33:23.286Z,12.42
2022-08-22T00:36:02.444Z,12.43
2022-08-22T00:38:34.779Z,12.38
2022-08-22T00:41:11.283Z,12.36
2022-08-22T00:44:01.048Z,12.21
2022-08-22T00:47:12.064Z,12.34
2022-08-22T00:50:07.829Z,12.25
2022-08-22T00:52:56.176Z,12.27
2022-08-22T00:55:46.106Z,12.25
2022-08-22T00:58:37.240Z,12.19
2022-08-22T01:01:08.061Z,12.13
2022-08-22T01:03:52.900Z,12.09
2022-08-22T01:06:31.067Z,12.03
2022-08-22T01:09:08.269Z,12.03
2022-08-22T01:11:55.489Z,11.98
2022-08-22T01:14:47.619Z,11.98
2022-08-22T01:17:47.432Z,11.95
2022-08-22T01:20:55.806Z,11.95
2022-08-22T01:24:05.488Z,11.80
2022-08-22T01:27:15.433Z,11.82
2022-08-22T01:30:13.877Z,11.73
2022-08-22T01:33:16.731Z,11.59
2022-08-22T01:36:13.683Z,11.49
2022-08-22T01:38:57.411Z,11.48
2022-08-22T01:41:40.503Z,11.44
2022-08-22T01:44:36.208Z,11.50
2022-08-22T01:47:12.339Z,11.42
2022-08-22T01:49:45.230Z,11.40
2022-08-22T01:52:19.744Z,11.42
2022-08-22T01:54:54.617Z,11.46
2022-08-22T01:57:23.506Z,11.35
2022-08-22T01:59:53.664Z,11.22
2022-08-22T02:02:32.669Z,11.14
2022-08-22T02:05:07.579Z,11.21
2022-08-22T02:07:50.404Z,11.25
2022-08-22T02:10:23.691Z,11.22
2022-08-22T02:13:03.459Z,11.07
2022-08-22T02:15:45.326Z,11.10
2022-08-22T02:18:21.356Z,11.01
2022-08-22T02:21:03.648Z,10.98
2022-08-22T02:23:45.465Z,10.94
2022-08-22T02:26:18.004Z,10.79
2022-08-22T02:28:57.297Z,10.78
2022-08-22T02:31:36.447Z,10.71
2022-08-22T02:34:21.273Z,10.60
2022-08-22T02:36:54.562Z,10.56
2022-08-22T02:39:36.715Z,10.46
2022-08-22T02:42:18.855Z,10.44
2022-08-22T02:44:56.541Z,10.41
2022-08-22T02:47:32.884Z,10.36
2022-08-22T02:50:12.685Z,10.31
2022-08-22T02:52:55.688Z,10.36
2022-08-22T02:55:37.038Z,10.48
2022-08-22T02:58:09.547Z,10.34
2022-08-22T03:00:48.316Z,10.14
2022-08-22T03:03:22.000Z,10.09
2022-08-22T03:06:01.323Z,10.07
2022-08-22T03:08:32.394Z,10.20
2022-08-22T03:11:12.859Z,10.07
2022-08-22T03:13:54.656Z,9.98
2022-08-22T03:16:32.012Z,9.91
2022-08-22T03:19:05.467Z,10.03
2022-08-22T03:21:37.753Z,9.93
2022-08-22T03:24:13.315Z,9.84
2022-08-22T03:26:51.268Z,9.86
2022-08-22T03:29:23.099Z,9.81
2022-08-22T03:32:08.789Z,9.80
2022-08-22T03:34:37.740Z,9.80
2022-08-22T03:37:13.972Z,9.74
2022-08-22T03:39:56.043Z,9.78
2022-08-22T03:42:56.699Z,9.81
2022-08-22T03:45:56.589Z,9.76
2022-08-22T03:48:46.177Z,9.66
2022-08-22T03:51:31.322Z,9.60
2022-08-22T03:54:43.688Z,9.57
2022-08-22T03:57:45.706Z,9.54
2022-08-22T04:00:40.338Z,9.66
2022-08-22T04:03:41.491Z,9.90
2022-08-22T04:06:49.280Z,9.93
2022-08-22T04:09:52.251Z,9.83
2022-08-22T04:12:49.367Z,9.63
2022-08-22T04:15:37.399Z,9.57
2022-08-22T04:18:34.614Z,9.60
2022-08-22T04:21:43.798Z,9.72
2022-08-22T04:24:52.375Z,9.76
2022-08-22T04:27:25.042Z,9.66
2022-08-22T04:29:59.637Z,9.52
2022-08-22T04:32:34.199Z,9.39
2022-08-22T04:35:08.901Z,9.31
2022-08-22T04:37:45.104Z,9.33
2022-08-22T04:40:18.590Z,9.35
2022-08-22T04:42:53.356Z,9.41
2022-08-22T04:45:25.038Z,9.64
2022-08-22T04:47:57.975Z,9.67
2022-08-22T04:50:32.127Z,9.65
2022-08-22T04:53:26.416Z,9.61
2022-08-22T04:56:07.119Z,9.62
2022-08-22T04:58:43.874Z,9.60
2022-08-22T05:01:17.514Z,9.56
2022-08-22T05:03:52.838Z,9.58
2022-08-22T05:06:26.417Z,9.72
2022-08-22T05:08:55.077Z,9.83
2022-08-22T05:11:24.824Z,10.04
2022-08-22T05:13:56.757Z,10.16
2022-08-22T05:16:28.672Z,10.39
2022-08-22T05:19:01.518Z,10.69
2022-08-22T05:21:36.017Z,10.63
2022-08-22T05:24:06.075Z,10.58
2022-08-22T05:26:38.719Z,10.93
2022-08-22T05:29:09.169Z,11.17
2022-08-22T05:31:41.587Z,11.36
2022-08-22T05:34:14.426Z,11.49
2022-08-22T05:36:49.513Z,11.70
2022-08-22T05:39:20.371Z,12.04
2022-08-22T05:41:50.797Z,12.34
2022-08-22T05:44:21.802Z,12.62
2022-08-22T05:46:52.163Z,12.71
2022-08-22T05:49:23.439Z,12.84
2022-08-22T05:52:02.199Z,13.18
2022-08-22T05:54:34.659Z,13.28
2022-08-22T05:57:10.378Z,13.48
2022-08-22T05:59:43.039Z,13.95
2022-08-22T06:02:15.722Z,14.44
2022-08-22T06:04:50.011Z,14.65
2022-08-22T06:07:23.426Z,14.98
2022-08-22T06:10:15.290Z,15.28
2022-08-22T06:12:50.854Z,15.66
2022-08-22T06:15:22.992Z,16.00
2022-08-22T06:17:54.931Z,16.37
2022-08-22T06:20:26.913Z,16.79
2022-08-22T06:23:01.652Z,16.78
2022-08-22T06:25:33.366Z,16.83
2022-08-22T06:28:05.043Z,16.87
2022-08-22T06:30:33.710Z,17.11
2022-08-22T06:33:06.291Z,17.38
2022-08-22T06:35:53.750Z,17.61
2022-08-22T06:38:28.293Z,17.87
2022-08-22T06:40:57.942Z,18.16
2022-08-22T06:43:26.531Z,18.68
2022-08-22T06:45:54.530Z,19.07
2022-08-22T06:48:24.431Z,19.24
2022-08-22T06:50:55.067Z,19.35
2022-08-22T06:53:28.083Z,19.10
2022-08-22T06:55:58.402Z,19.27
2022-08-22T06:58:34.038Z,19.23
2022-08-22T07:01:12.179Z,19.02
2022-08-22T07:03:44.240Z,19.57
2022-08-22T07:06:15.774Z,19.64
2022-08-22T07:08:45.150Z,19.55
2022-08-22T07:11:18.329Z,19.69
2022-08-22T07:13:52.517Z,19.96
2022-08-22T07:16:30.459Z,19.92
2022-08-22T07:18:58.657Z,19.70
2022-08-22T07:21:28.446Z,19.84
2022-08-22T07:24:01.429Z,20.15
2022-08-22T07:26:35.480Z,20.49
2022-08-22T07:29:11.378Z,20.54
2022-08-22T07:31:46.455Z,20.27
2022-08-22T07:34:33.067Z,20.48
2022-08-22T07:37:08.614Z,20.20
2022-08-22T07:39:44.030Z,20.09
2022-08-22T07:42:15.969Z,20.32
2022-08-22T07:45:00.642Z,20.49
2022-08-22T07:47:41.951Z,20.46
2022-08-22T07:50:16.213Z,20.46
2022-08-22T07:52:46.895Z,20.32
2022-08-22T07:55:20.121Z,20.33
2022-08-22T07:57:54.362Z,20.01
2022-08-22T08:00:23.363Z,19.97
2022-08-22T08:02:53.941Z,19.77
2022-08-22T08:05:24.426Z,19.52
2022-08-22T08:07:54.516Z,19.41
2022-08-22T08:10:31.191Z,19.59
2022-08-22T08:13:03.887Z,19.66
2022-08-22T08:15:34.178Z,19.52
2022-08-22T08:18:05.395Z,19.01
2022-08-22T08:20:36.236Z,19.57
2022-08-22T08:23:06.248Z,19.63
2022-08-22T08:25:53.311Z,19.37
2022-08-22T08:28:36.151Z,19.62
2022-08-22T08:31:09.627Z,19.57
2022-08-22T08:33:40.575Z,19.66
2022-08-22T08:36:19.738Z,19.88
2022-08-22T08:38:53.464Z,19.66
2022-08-22T08:42:02.580Z,19.77
2022-08-22T08:45:04.722Z,20.02
2022-08-22T08:47:57.414Z,19.33
2022-08-22T08:50:44.069Z,19.57
2022-08-22T08:53:31.641Z,20.08
2022-08-22T08:56:04.870Z,20.29
2022-08-22T08:58:43.234Z,19.97
2022-08-22T09:01:28.781Z,20.34
2022-08-22T09:04:26.146Z,20.25
2022-08-22T09:07:24.188Z,20.45
2022-08-22T09:10:12.220Z,20.06
2022-08-22T09:13:14.430Z,20.49
2022-08-22T09:16:04.586Z,20.83
2022-08-22T09:18:49.517Z,21.00
2022-08-22T09:21:31.261Z,20.81
2022-08-22T09:24:49.022Z,20.59
2022-08-22T09:27:21.440Z,20.57
2022-08-22T09:29:59.805Z,20.79
2022-08-22T09:32:42.217Z,20.80
2022-08-22T09:35:22.865Z,20.98
2022-08-22T09:38:04.726Z,20.61
2022-08-22T09:40:40.386Z,20.65
2022-08-22T09:43:11.780Z,20.88
2022-08-22T09:45:50.062Z,20.81
2022-08-22T09:48:40.648Z,21.16
2022-08-22T09:51:34.375Z,21.77
2022-08-22T09:54:34.898Z,21.72
2022-08-22T09:57:18.915Z,21.45
2022-08-22T10:00:13.820Z,21.56
2022-08-22T10:02:50.485Z,21.44
2022-08-22T10:05:40.894Z,21.81
2022-08-22T10:08:20.290Z,21.95
2022-08-22T10:11:03.706Z,22.18
2022-08-22T10:13:46.238Z,22.52
2022-08-22T10:16:25.278Z,22.43
2022-08-22T10:19:07.642Z,21.76
2022-08-22T10:22:06.683Z,21.57
2022-08-22T10:24:44.722Z,21.74
2022-08-22T10:27:17.757Z,21.65
2022-08-22T10:29:58.876Z,21.56
2022-08-22T10:32:34.869Z,21.69
2022-08-22T10:35:13.607Z,21.97
2022-08-22T10:37:54.158Z,22.05
2022-08-22T10:40:28.709Z,22.51
2022-08-22T10:43:05.332Z,22.55
2022-08-22T10:45:36.503Z,22.94
2022-08-22T10:48:26.744Z,22.99
2022-08-22T10:51:03.453Z,22.91
2022-08-22T10:53:52.519Z,22.98
2022-08-22T10:56:28.256Z,22.81
2022-08-22T10:59:04.383Z,23.08
2022-08-22T11:01:41.864Z,22.95
2022-08-22T11:04:18.081Z,23.26
2022-08-22T11:06:51.298Z,23.53
2022-08-22T11:09:31.215Z,22.86
2022-08-22T11:12:13.178Z,22.97
2022-08-22T11:15:05.744Z,23.07
2022-08-22T11:18:17.492Z,23.59
2022-08-22T11:20:57.648Z,23.64
2022-08-22T11:23:37.942Z,23.90
2022-08-22T11:26:14.256Z,23.59
2022-08-22T11:29:02.775Z,23.47
2022-08-22T11:31:51.547Z,23.59
2022-08-22T11:34:36.473Z,23.66
2022-08-22T11:37:11.058Z,23.41
2022-08-22T11:39:45.077Z,23.73
2022-08-22T11:42:22.195Z,23.64
2022-08-22T11:44:55.598Z,23.85
2022-08-22T11:47:26.818Z,23.81
2022-08-22T11:50:01.067Z,23.94
2022-08-22T11:52:42.647Z,24.10
2022-08-22T11:55:22.796Z,24.60
2022-08-22T11:57:52.950Z,24.78
2022-08-22T12:00:35.251Z,25.46
2022-08-22T12:03:23.484Z,26.05
2022-08-22T12:05:55.807Z,26.22
2022-08-22T12:09:03.671Z,26.44
2022-08-22T12:11:39.367Z,25.80
2022-08-22T12:14:17.319Z,25.76
2022-08-22T12:17:06.920Z,26.24
2022-08-22T12:19:59.074Z,25.96
2022-08-22T12:22:49.814Z,26.38
2022-08-22T12:25:33.232Z,26.87
2022-08-22T12:28:18.003Z,27.02
2022-08-22T12:30:55.021Z,26.71
2022-08-22T12:34:04.249Z,26.27
2022-08-22T12:36:49.584Z,26.43
2022-08-22T12:39:32.306Z,26.76
2022-08-22T12:42:22.429Z,26.83
2022-08-22T12:45:09.220Z,26.56
2022-08-22T12:47:50.354Z,26.77
2022-08-22T12:50:28.639Z,26.53
2022-08-22T12:53:31.384Z,26.65
2022-08-22T12:56:32.108Z,26.56
2022-08-22T12:59:17.810Z,26.39
2022-08-22T13:01:49.223Z,26.86
2022-08-22T13:04:32.775Z,27.24
2022-08-22T13:07:17.370Z,27.04
2022-08-22T13:09:52.399Z,26.91
2022-08-22T13:12:28.104Z,27.11
2022-08-22T13:15:00.848Z,26.81
2022-08-22T13:17:29.046Z,26.58
2022-08-22T13:20:08.446Z,26.78
2022-08-22T13:22:39.196Z,26.63
2022-08-22T13:25:15.243Z,26.47
2022-08-22T13:27:55.817Z,26.42
2022-08-22T13:30:31.479Z,26.39
2022-08-22T13:33:09.324Z,26.73
2022-08-22T13:35:44.581Z,26.75
2022-08-22T13:38:25.502Z,26.73
2022-08-22T13:40:57.596Z,26.65
2022-08-22T13:43:29.650Z,26.75
2022-08-22T13:46:01.905Z,26.89
2022-08-22T13:48:46.764Z,26.94
2022-08-22T13:51:21.140Z,26.78
2022-08-22T13:54:00.818Z,26.77
2022-08-22T13:56:44.143Z,26.68
2022-08-22T13:59:49.104Z,26.54
2022-08-22T14:02:31.052Z,26.35
2022-08-22T14:05:05.948Z,26.49
2022-08-22T14:07:38.844Z,26.61
2022-08-22T14:10:14.913Z,26.61
2022-08-22T14:13:07.114Z,26.53
2022-08-22T14:15:45.519Z,26.38
2022-08-22T14:18:18.552Z,26.62
2022-08-22T14:20:48.187Z,26.73
2022-08-22T14:23:27.086Z,26.79
2022-08-22T14:25:55.388Z,26.97
2022-08-22T14:28:31.406Z,26.81
2022-08-22T14:31:03.606Z,26.76
2022-08-22T14:33:36.371Z,26.61
2022-08-22T14:36:15.572Z,26.66
2022-08-22T14:38:49.356Z,26.51
2022-08-22T14:41:56.392Z,26.18
2022-08-22T14:44:24.108Z,26.59
2022-08-22T14:46:56.107Z,26.99
2022-08-22T14:49:38.209Z,26.89
2022-08-22T14:52:10.084Z,26.37
2022-08-22T14:54:47.202Z,25.78
2022-08-22T14:57:20.602Z,25.98
2022-08-22T14:59:53.149Z,25.71
2022-08-22T15:02:27.688Z,25.59
2022-08-22T15:04:57.597Z,25.12
2022-08-22T15:07:28.262Z,25.87
2022-08-22T15:09:58.868Z,26.29
2022-08-22T15:12:34.246Z,26.99
2022-08-22T15:15:07.242Z,26.74
2022-08-22T15:17:43.988Z,27.01
2022-08-22T15:20:27.773Z,27.20
2022-08-22T15:22:58.246Z,27.02
2022-08-22T15:25:31.094Z,27.65
2022-08-22T15:28:14.268Z,25.91
2022-08-22T15:30:49.810Z,26.49
2022-08-22T15:33:24.500Z,27.47
2022-08-22T15:35:53.923Z,27.01
2022-08-22T15:38:28.624Z,26.86
2022-08-22T15:40:57.351Z,26.39
2022-08-22T15:43:35.055Z,26.62
2022-08-22T15:46:18.318Z,26.57
2022-08-22T15:48:56.359Z,26.53
2022-08-22T15:51:38.780Z,26.61
2022-08-22T15:54:16.081Z,26.51
2022-08-22T15:57:13.592Z,26.05
2022-08-22T15:59:54.127Z,25.77
2022-08-22T16:02:30.309Z,25.85
2022-08-22T16:05:23.588Z,25.71
2022-08-22T16:08:02.659Z,25.33
2022-08-22T16:10:35.612Z,25.18
2022-08-22T16:13:14.873Z,25.29
2022-08-22T16:15:58.858Z,25.03
2022-08-22T16:19:03.596Z,24.96
2022-08-22T16:22:10.568Z,24.79
2022-08-22T16:25:01.208Z,24.22
2022-08-22T16:27:29.367Z,24.40
2022-08-22T16:30:09.554Z,24.36
2022-08-22T16:32:38.187Z,24.30
2022-08-22T16:35:06.176Z,24.35
2022-08-22T16:37:56.052Z,24.32
2022-08-22T16:40:26.743Z,24.28
2022-08-22T16:43:20.728Z,24.03
2022-08-22T16:45:49.428Z,23.87
2022-08-22T16:48:31.928Z,23.73
2022-08-22T16:51:13.382Z,23.89
2022-08-22T16:54:05.481Z,23.83
2022-08-22T16:56:40.423Z,23.94
2022-08-22T16:59:26.465Z,23.93
2022-08-22T17:02:12.301Z,23.59
2022-08-22T17:04:52.396Z,23.42
2022-08-22T17:07:34.214Z,23.50
2022-08-22T17:10:23.636Z,23.20
2022-08-22T17:13:10.775Z,23.28
2022-08-22T17:15:53.644Z,23.17
2022-08-22T17:18:43.574Z,23.12
2022-08-22T17:21:17.575Z,22.89
2022-08-22T17:23:55.789Z,22.89
2022-08-22T17:26:36.092Z,22.79
2022-08-22T17:29:12.579Z,22.87
2022-08-22T17:31:51.140Z,22.99
2022-08-22T17:34:29.942Z,22.95
2022-08-22T17:37:08.183Z,22.96
2022-08-22T17:39:58.345Z,22.90
2022-08-22T17:42:42.498Z,22.84
2022-08-22T17:45:21.653Z,22.76
2022-08-22T17:47:59.529Z,22.73
2022-08-22T17:50:35.515Z,22.70
2022-08-22T17:53:08.389Z,22.68
2022-08-22T17:55:53.972Z,22.57
2022-08-22T17:58:37.535Z,22.70
2022-08-22T18:01:15.175Z,22.86
2022-08-22T18:03:51.390Z,22.81
2022-08-22T18:06:22.595Z,22.75
2022-08-22T18:11:48.163Z,22.56
2022-08-22T18:14:28.918Z,22.48
2022-08-22T18:16:59.095Z,22.37
2022-08-22T18:19:41.251Z,22.35
2022-08-22T18:22:14.088Z,22.27
2022-08-22T18:24:50.287Z,22.21
2022-08-22T18:27:34.368Z,22.09
2022-08-22T18:30:16.276Z,22.03
2022-08-22T18:32:52.240Z,21.88
2022-08-22T18:35:24.036Z,21.69
2022-08-22T18:38:00.784Z,21.74
2022-08-22T18:40:43.459Z,21.64
2022-08-22T18:43:23.773Z,21.44
2022-08-22T18:46:04.110Z,21.31
2022-08-22T18:48:54.405Z,21.38
2022-08-22T18:51:31.225Z,21.20
2022-08-22T18:54:20.422Z,21.08
2022-08-22T18:56:54.510Z,20.93
2022-08-22T18:59:42.734Z,20.84
2022-08-22T19:02:26.763Z,20.61
2022-08-22T19:05:24.776Z,20.55
2022-08-22T19:08:28.927Z,20.45
2022-08-22T19:11:14.247Z,20.30
2022-08-22T19:13:56.354Z,19.80
2022-08-22T19:16:44.564Z,19.85
2022-08-22T19:19:18.368Z,19.91
2022-08-22T19:22:21.705Z,19.89
2022-08-22T19:25:12.548Z,19.80
2022-08-22T19:27:41.946Z,19.76
2022-08-22T19:30:39.179Z,19.66
2022-08-22T19:33:10.456Z,19.47
2022-08-22T19:35:44.921Z,19.54
2022-08-22T19:38:33.137Z,19.42
2022-08-22T19:41:01.594Z,18.99
2022-08-22T19:43:37.832Z,18.75
2022-08-22T19:46:08.512Z,18.61
2022-08-22T19:48:46.687Z,18.34
2022-08-22T19:51:25.909Z,18.21
2022-08-22T19:54:07.744Z,17.99
2022-08-22T19:56:48.519Z,17.68
2022-08-22T19:59:29.325Z,17.85
2022-08-22T20:02:07.242Z,17.79
2022-08-22T20:04:55.910Z,17.77
2022-08-22T20:07:33.795Z,17.77
2022-08-22T20:10:16.588Z,17.91
2022-08-22T20:13:00.958Z,18.14
2022-08-22T20:15:30.264Z,18.16
2022-08-22T20:18:47.319Z,18.21
2022-08-22T20:21:01.569Z,18.29
2022-08-22T20:23:32.060Z,18.14
2022-08-22T20:26:00.180Z,18.14
2022-08-22T20:28:40.826Z,17.87
2022-08-22T20:31:20.712Z,17.68
2022-08-22T20:33:54.540Z,17.52
2022-08-22T20:36:28.490Z,17.45
2022-08-22T20:39:01.101Z,17.38
2022-08-22T20:41:34.312Z,17.31
2022-08-22T20:44:11.076Z,17.29
2022-08-22T20:46:47.724Z,17.19
2022-08-22T20:49:24.213Z,17.08
2022-08-22T20:51:56.397Z,16.99
2022-08-22T20:54:25.960Z,16.81
2022-08-22T20:56:57.115Z,16.84
2022-08-22T20:59:29.799Z,16.60
2022-08-22T21:02:05.547Z,16.68
2022-08-22T21:04:45.453Z,16.61
2022-08-22T21:07:21.493Z,16.50
2022-08-22T21:10:12.787Z,16.52
2022-08-22T21:12:40.541Z,16.30
2022-08-22T21:15:09.104Z,16.12
2022-08-22T21:17:39.440Z,16.04
2022-08-22T21:20:19.044Z,15.87
2022-08-22T21:22:48.576Z,15.87
2022-08-22T21:25:16.111Z,15.85
2022-08-22T21:27:47.959Z,15.73
2022-08-22T21:30:24.291Z,15.73
2022-08-22T21:32:55.942Z,15.61
2022-08-22T21:35:27.949Z,15.48
2022-08-22T21:37:57.567Z,15.65
2022-08-22T21:40:31.808Z,15.54
2022-08-22T21:43:02.411Z,15.39
2022-08-22T21:45:33.207Z,15.35
2022-08-22T21:48:01.924Z,15.35
2022-08-22T21:50:37.774Z,15.39
2022-08-22T21:53:12.114Z,15.36
2022-08-22T21:55:44.192Z,15.11
2022-08-22T21:58:35.171Z,15.26
2022-08-22T22:01:28.505Z,15.08
2022-08-22T22:03:57.485Z,14.93
2022-08-22T22:06:24.965Z,14.83
2022-08-22T22:08:53.814Z,14.75
2022-08-22T22:11:21.407Z,14.62
2022-08-22T22:13:49.157Z,14.51
2022-08-22T22:16:23.779Z,14.49
2022-08-22T22:18:51.287Z,14.45
2022-08-22T22:21:18.886Z,14.55
2022-08-22T22:23:46.392Z,14.55
2022-08-22T22:26:15.306Z,14.57
2022-08-22T22:28:47.216Z,14.39
2022-08-22T22:31:16.244Z,14.26
2022-08-22T22:33:44.432Z,14.13
2022-08-22T22:36:16.994Z,14.00
2022-08-22T22:38:45.140Z,13.82
2022-08-22T22:41:12.879Z,13.72
2022-08-22T22:43:41.723Z,13.81
2022-08-22T22:46:09.540Z,13.67
2022-08-22T22:48:37.292Z,13.61
2022-08-22T22:51:09.432Z,13.70
2022-08-22T22:53:40.417Z,13.75
2022-08-22T22:56:13.064Z,13.72
2022-08-22T22:58:42.996Z,13.70
2022-08-22T23:01:11.803Z,13.67
2022-08-22T23:03:39.516Z,13.72
2022-08-22T23:06:12.134Z,13.53
2022-08-22T23:08:39.909Z,13.46
2022-08-22T23:11:11.209Z,13.53
2022-08-22T23:13:39.662Z,13.35
2022-08-22T23:16:16.214Z,13.36
2022-08-22T23:18:43.887Z,13.28
2022-08-22T23:21:13.276Z,13.07
2022-08-22T23:23:41.368Z,13.16
2022-08-22T23:26:09.494Z,12.99
2022-08-22T23:28:37.078Z,12.95
2022-08-22T23:31:14.376Z,12.89
2022-08-22T23:33:42.159Z,12.83
2022-08-22T23:36:15.499Z,12.87
2022-08-22T23:38:44.061Z,12.86
2022-08-22T23:41:13.537Z,12.68
2022-08-22T23:43:44.012Z,12.62
2022-08-22T23:46:13.923Z,12.62
2022-08-22T23:48:41.700Z,12.60
2022-08-22T23:51:11.184Z,12.57
2022-08-22T23:53:39.144Z,12.37
2022-08-22T23:56:19.879Z,12.34
2022-08-22T23:58:49.003Z,12.24
